createdAt,value
2022-10-22T00:02:22.032Z,100375.78
2022-10-22T00:04:49.892Z,100387.31
2022-10-22T00:07:17.490Z,100380.22
2022-10-22T00:09:44.098Z,100393.84
2022-10-22T00:12:10.991Z,100365.34
2022-10-22T00:14:39.560Z,100384.22
2022-10-22T00:17:10.496Z,100369.94
2022-10-22T00:19:38.195Z,100370.50
2022-10-22T00:22:04.728Z,100367.00
2022-10-22T00:24:31.803Z,100383.50
2022-10-22T00:26:58.481Z,100374.22
2022-10-22T00:29:25.242Z,100368.09
2022-10-22T00:31:53.172Z,100371.66
2022-10-22T00:34:21.444Z,100372.34
2022-10-22T00:36:48.876Z,100346.78
2022-10-22T00:39:17.050Z,100365.63
2022-10-22T00:41:43.972Z,100372.72
2022-10-22T00:44:43.608Z,100362.03
2022-10-22T00:47:11.662Z,100361.88
2022-10-22T00:49:38.336Z,100347.69
2022-10-22T00:52:05.635Z,100347.53
2022-10-22T00:54:32.611Z,100338.09
2022-10-22T00:56:59.976Z,100362.72
2022-10-22T00:59:26.612Z,100371.91
2022-10-22T01:01:53.521Z,100335.31
2022-10-22T01:04:21.488Z,100345.31
2022-10-22T01:06:48.301Z,100356.16
2022-10-22T01:09:21.967Z,100358.66
2022-10-22T01:11:58.093Z,100347.00
2022-10-22T01:14:34.948Z,100372.88
2022-10-22T01:17:07.202Z,100359.50
2022-10-22T01:19:50.131Z,100350.28
2022-10-22T01:22:22.179Z,100339.31
2022-10-22T01:24:57.509Z,100343.63
2022-10-22T01:27:34.996Z,100342.09
2022-10-22T01:30:06.771Z,100334.69
2022-10-22T01:32:36.575Z,100344.19
2022-10-22T01:35:07.473Z,100343.38
2022-10-22T01:37:39.048Z,100327.50
2022-10-22T01:40:07.827Z,100344.47
2022-10-22T01:42:34.430Z,100342.81
2022-10-22T01:45:00.999Z,100341.06
2022-10-22T01:47:42.044Z,100354.91
2022-10-22T01:50:40.686Z,100363.69
2022-10-22T01:53:18.010Z,100357.19
2022-10-22T01:55:56.084Z,100349.84
2022-10-22T01:58:34.128Z,100361.69
2022-10-22T02:01:06.274Z,100361.00
2022-10-22T02:03:40.654Z,100361.69
2022-10-22T02:06:12.604Z,100339.75
2022-10-22T02:08:40.339Z,100328.91
2022-10-22T02:11:07.743Z,100335.03
2022-10-22T02:13:40.267Z,100366.69
2022-10-22T02:16:09.360Z,100312.72
2022-10-22T02:18:42.833Z,100361.16
2022-10-22T02:21:09.799Z,100354.50
2022-10-22T02:23:36.648Z,100360.88
2022-10-22T02:26:10.952Z,100360.63
2022-10-22T02:28:44.292Z,100370.91
2022-10-22T02:31:14.893Z,100330.19
2022-10-22T02:33:46.481Z,100306.34
2022-10-22T02:36:14.374Z,100333.41
2022-10-22T02:38:41.932Z,100364.66
2022-10-22T02:41:08.637Z,100344.69
2022-10-22T02:43:41.038Z,100341.31
2022-10-22T02:46:07.927Z,100348.22
2022-10-22T02:48:34.460Z,100358.53
2022-10-22T02:51:02.501Z,100368.59
2022-10-22T02:53:29.047Z,100358.44
2022-10-22T02:55:55.646Z,100371.50
2022-10-22T02:58:22.256Z,100259.00
2022-10-22T03:00:49.116Z,100369.00
2022-10-22T03:03:15.723Z,100347.81
2022-10-22T03:05:42.429Z,100372.94
2022-10-22T03:08:10.409Z,100362.63
2022-10-22T03:10:36.987Z,100362.94
2022-10-22T03:13:03.945Z,100370.19
2022-10-22T03:15:30.577Z,100383.56
2022-10-22T03:17:57.115Z,100374.81
2022-10-22T03:20:23.796Z,100361.34
2022-10-22T03:22:50.589Z,100356.78
2022-10-22T03:25:22.094Z,100392.66
2022-10-22T03:27:51.214Z,100406.00
2022-10-22T03:30:18.076Z,100395.31
2022-10-22T03:32:44.663Z,100382.97
2022-10-22T03:35:11.199Z,100398.50
2022-10-22T03:37:38.514Z,100385.06
2022-10-22T03:40:07.592Z,100407.56
2022-10-22T03:42:35.563Z,100396.88
2022-10-22T03:45:02.087Z,100404.78
2022-10-22T03:47:28.856Z,100415.63
2022-10-22T03:49:55.371Z,100408.13
2022-10-22T03:52:21.983Z,100404.94
2022-10-22T03:54:48.508Z,100379.94
2022-10-22T03:57:15.818Z,100392.84
2022-10-22T03:59:45.273Z,100407.03
2022-10-22T04:02:13.322Z,100405.09
2022-10-22T04:04:39.977Z,100413.16
2022-10-22T04:07:07.535Z,100416.91
2022-10-22T04:09:34.700Z,100421.09
2022-10-22T04:12:01.809Z,100370.97
2022-10-22T04:14:28.346Z,100401.09
2022-10-22T04:16:56.376Z,100426.94
2022-10-22T04:19:22.980Z,100425.41
2022-10-22T04:21:49.625Z,100428.22
2022-10-22T04:24:16.190Z,100369.44
2022-10-22T04:26:42.968Z,100374.03
2022-10-22T04:29:13.395Z,100437.38
2022-10-22T04:31:42.737Z,100432.53
2022-10-22T04:34:10.652Z,100449.19
2022-10-22T04:36:37.396Z,100391.53
2022-10-22T04:39:04.905Z,100450.59
2022-10-22T04:41:33.908Z,100451.28
2022-10-22T04:44:01.048Z,100443.94
2022-10-22T04:46:29.713Z,100435.31
2022-10-22T04:48:56.494Z,100447.25
2022-10-22T04:51:25.564Z,100440.19
2022-10-22T04:53:52.454Z,100448.78
2022-10-22T04:56:20.622Z,100444.91
2022-10-22T04:58:47.637Z,100446.84
2022-10-22T05:01:16.574Z,100447.13
2022-10-22T05:03:44.241Z,100455.59
2022-10-22T05:08:44.704Z,100462.66
2022-10-22T05:11:12.575Z,100448.75
2022-10-22T05:13:39.252Z,100473.19
2022-10-22T05:16:06.386Z,100447.00
2022-10-22T05:18:34.577Z,100473.28
2022-10-22T05:21:01.097Z,100464.50
2022-10-22T05:23:28.251Z,100475.75
2022-10-22T05:25:56.177Z,100478.78
2022-10-22T05:28:22.860Z,100474.88
2022-10-22T05:30:53.413Z,100441.19
2022-10-22T05:33:23.967Z,100471.38
2022-10-22T05:35:51.235Z,100465.81
2022-10-22T05:38:18.382Z,100472.59
2022-10-22T05:40:45.315Z,100458.81
2022-10-22T05:43:13.640Z,100485.88
2022-10-22T05:45:41.348Z,100475.88
2022-10-22T05:48:08.992Z,100482.09
2022-10-22T05:50:36.318Z,100483.06
2022-10-22T05:53:03.269Z,100477.72
2022-10-22T05:55:29.938Z,100500.75
2022-10-22T05:57:56.441Z,100511.31
2022-10-22T06:00:24.548Z,100512.66
2022-10-22T06:02:51.407Z,100520.25
2022-10-22T06:05:18.319Z,100503.50
2022-10-22T06:07:45.303Z,100519.25
2022-10-22T06:10:16.813Z,100507.31
2022-10-22T06:12:43.590Z,100532.78
2022-10-22T06:15:12.477Z,100443.78
2022-10-22T06:17:40.659Z,100545.69
2022-10-22T06:20:08.889Z,100533.75
2022-10-22T06:22:35.655Z,100541.06
2022-10-22T06:25:02.471Z,100542.63
2022-10-22T06:27:29.058Z,100557.66
2022-10-22T06:29:55.646Z,100556.81
2022-10-22T06:32:22.268Z,100541.91
2022-10-22T06:34:50.155Z,100554.16
2022-10-22T06:37:16.976Z,100575.34
2022-10-22T06:39:43.825Z,100578.09
2022-10-22T06:42:10.424Z,100576.06
2022-10-22T06:44:37.038Z,100581.63
2022-10-22T06:47:03.715Z,100583.19
2022-10-22T06:49:30.258Z,100589.72
2022-10-22T06:51:58.218Z,100559.84
2022-10-22T06:54:24.806Z,100598.16
2022-10-22T06:56:51.443Z,100601.13
2022-10-22T06:59:17.989Z,100590.94
2022-10-22T07:01:44.640Z,100614.34
2022-10-22T07:04:11.334Z,100613.44
2022-10-22T07:06:38.060Z,100585.22
2022-10-22T07:09:06.054Z,100597.91
2022-10-22T07:11:39.436Z,100598.50
2022-10-22T07:14:06.072Z,100614.00
2022-10-22T07:16:32.745Z,100599.72
2022-10-22T07:19:00.144Z,100620.91
2022-10-22T07:21:26.734Z,100614.50
2022-10-22T07:23:53.518Z,100601.69
2022-10-22T07:26:21.590Z,100622.47
2022-10-22T07:28:48.203Z,100595.16
2022-10-22T07:31:15.889Z,100623.72
2022-10-22T07:33:42.727Z,100629.25
2022-10-22T07:36:12.053Z,100640.69
2022-10-22T07:38:38.593Z,100646.56
2022-10-22T07:41:05.516Z,100651.16
2022-10-22T07:43:33.552Z,100658.97
2022-10-22T07:46:00.060Z,100657.06
2022-10-22T07:48:26.667Z,100657.78
2022-10-22T07:50:53.235Z,100655.84
2022-10-22T07:53:20.424Z,100629.56
2022-10-22T07:55:48.485Z,100640.00
2022-10-22T07:58:15.160Z,100670.06
2022-10-22T08:00:43.037Z,100688.03
2022-10-22T08:03:11.287Z,100694.69
2022-10-22T08:05:37.856Z,100685.94
2022-10-22T08:08:04.712Z,100695.41
2022-10-22T08:10:31.315Z,100682.03
2022-10-22T08:12:57.922Z,100697.09
2022-10-22T08:15:24.418Z,100698.88
2022-10-22T08:17:52.518Z,100701.53
2022-10-22T08:20:19.676Z,100704.56
2022-10-22T08:22:46.326Z,100702.47
2022-10-22T08:25:13.171Z,100703.97
2022-10-22T08:27:40.111Z,100712.59
2022-10-22T08:30:08.075Z,100701.81
2022-10-22T08:32:34.825Z,100713.59
2022-10-22T08:35:02.896Z,100717.59
2022-10-22T08:37:29.479Z,100688.03
2022-10-22T08:39:56.167Z,100718.59
2022-10-22T08:42:50.444Z,100689.59
2022-10-22T08:45:24.005Z,100715.22
2022-10-22T08:48:08.295Z,100722.13
2022-10-22T08:50:42.050Z,100724.72
2022-10-22T08:53:14.287Z,100722.22
2022-10-22T08:55:41.648Z,100721.22
2022-10-22T08:58:17.010Z,100702.72
2022-10-22T09:00:46.273Z,100721.19
2022-10-22T09:03:27.679Z,100734.25
2022-10-22T09:06:05.185Z,100734.88
2022-10-22T09:08:31.920Z,100726.16
2022-10-22T09:11:03.452Z,100728.19
2022-10-22T09:13:30.308Z,100734.44
2022-10-22T09:16:17.277Z,100737.09
2022-10-22T09:18:56.272Z,100733.81
2022-10-22T09:21:31.187Z,100741.66
2022-10-22T09:24:04.983Z,100744.50
2022-10-22T09:26:34.742Z,100752.03
2022-10-22T09:29:01.959Z,100749.22
2022-10-22T09:31:31.253Z,100753.53
2022-10-22T09:33:58.364Z,100750.88
2022-10-22T09:36:29.222Z,100746.41
2022-10-22T09:38:56.044Z,100737.44
2022-10-22T09:41:27.633Z,100757.75
2022-10-22T09:43:54.626Z,100759.56
2022-10-22T09:46:23.348Z,100752.41
2022-10-22T09:48:58.455Z,100730.44
2022-10-22T09:51:40.442Z,100749.09
2022-10-22T09:54:16.009Z,100735.94
2022-10-22T09:56:48.342Z,100756.91
2022-10-22T09:59:16.264Z,100744.63
2022-10-22T10:01:43.181Z,100761.94
2022-10-22T10:04:12.162Z,100761.75
2022-10-22T10:06:42.822Z,100762.75
2022-10-22T10:09:16.477Z,100769.56
2022-10-22T10:11:46.661Z,100768.25
2022-10-22T10:14:20.179Z,100763.09
2022-10-22T10:16:57.538Z,100764.09
2022-10-22T10:19:49.771Z,100742.44
2022-10-22T10:22:31.359Z,100751.41
2022-10-22T10:25:14.098Z,100769.56
2022-10-22T10:27:44.100Z,100751.22
2022-10-22T10:30:14.011Z,100775.72
2022-10-22T10:32:55.415Z,100758.72
2022-10-22T10:35:27.049Z,100771.69
2022-10-22T10:38:01.123Z,100775.66
2022-10-22T10:40:34.746Z,100768.63
2022-10-22T10:43:09.889Z,100778.75
2022-10-22T10:45:46.532Z,100772.94
2022-10-22T10:48:26.797Z,100785.66
2022-10-22T10:51:03.437Z,100789.06
2022-10-22T10:53:43.747Z,100788.47
2022-10-22T10:56:23.690Z,100790.06
2022-10-22T10:59:00.687Z,100783.66
2022-10-22T11:01:34.949Z,100788.75
2022-10-22T11:04:37.048Z,100794.38
2022-10-22T11:07:11.417Z,100803.47
2022-10-22T11:09:44.127Z,100794.25
2022-10-22T11:12:16.582Z,100798.06
2022-10-22T11:14:56.680Z,100793.84
2022-10-22T11:17:27.547Z,100794.22
2022-10-22T11:20:01.297Z,100798.56
2022-10-22T11:22:34.066Z,100793.84
2022-10-22T11:25:13.861Z,100778.72
2022-10-22T11:27:45.783Z,100793.84
2022-10-22T11:30:14.314Z,100795.50
2022-10-22T11:32:44.213Z,100795.44
2022-10-22T11:35:15.657Z,100802.84
2022-10-22T11:37:45.486Z,100798.78
2022-10-22T11:40:19.011Z,100798.59
2022-10-22T11:42:49.314Z,100795.91
2022-10-22T11:45:31.131Z,100796.38
2022-10-22T11:48:05.041Z,100769.81
2022-10-22T11:50:46.664Z,100795.94
2022-10-22T11:53:17.779Z,100790.06
2022-10-22T11:55:47.644Z,100775.75
2022-10-22T11:58:33.797Z,100795.81
2022-10-22T12:01:21.914Z,100795.19
2022-10-22T12:03:50.819Z,100804.06
2022-10-22T12:06:23.274Z,100792.53
2022-10-22T12:08:59.711Z,100798.44
2022-10-22T12:11:35.172Z,100807.72
2022-10-22T12:14:13.964Z,100804.97
2022-10-22T12:16:55.598Z,100813.28
2022-10-22T12:19:31.698Z,100815.97
2022-10-22T12:22:02.933Z,100776.28
2022-10-22T12:24:34.262Z,100811.88
2022-10-22T12:27:02.205Z,100815.03
2022-10-22T12:29:31.699Z,100775.84
2022-10-22T12:32:03.547Z,100788.75
2022-10-22T12:34:30.145Z,100800.06
2022-10-22T12:36:56.623Z,100800.66
2022-10-22T12:39:26.620Z,100775.66
2022-10-22T12:41:54.742Z,100763.56
2022-10-22T12:44:22.676Z,100787.16
2022-10-22T12:46:53.137Z,100777.22
2022-10-22T12:49:27.724Z,100784.22
2022-10-22T12:51:54.568Z,100772.31
2022-10-22T12:54:26.860Z,100781.19
2022-10-22T12:56:55.227Z,100769.78
2022-10-22T12:59:26.606Z,100769.41
2022-10-22T13:01:56.263Z,100771.00
2022-10-22T13:04:32.727Z,100775.94
2022-10-22T13:07:21.274Z,100780.03
2022-10-22T13:09:58.576Z,100775.31
2022-10-22T13:12:27.039Z,100768.59
2022-10-22T13:14:54.915Z,100758.75
2022-10-22T13:17:38.996Z,100754.34
2022-10-22T13:20:16.916Z,100769.66
2022-10-22T13:22:53.936Z,100763.38
2022-10-22T13:25:24.044Z,100749.75
2022-10-22T13:27:53.408Z,100774.47
2022-10-22T13:30:24.406Z,100778.63
2022-10-22T13:32:53.486Z,100756.84
2022-10-22T13:35:24.003Z,100770.38
2022-10-22T13:37:50.614Z,100767.94
2022-10-22T13:40:17.550Z,100768.16
2022-10-22T13:42:44.445Z,100769.84
2022-10-22T13:45:14.919Z,100743.91
2022-10-22T13:47:46.395Z,100759.19
2022-10-22T13:50:13.867Z,100767.44
2022-10-22T13:52:43.998Z,100742.59
2022-10-22T13:55:16.667Z,100772.56
2022-10-22T13:57:43.629Z,100740.38
2022-10-22T14:00:13.539Z,100764.53
2022-10-22T14:02:43.855Z,100760.91
2022-10-22T14:05:10.888Z,100745.25
2022-10-22T14:07:38.419Z,100768.88
2022-10-22T14:10:13.913Z,100748.03
2022-10-22T14:12:40.770Z,100751.38
2022-10-22T14:15:08.577Z,100778.09
2022-10-22T14:17:35.251Z,100761.59
2022-10-22T14:20:03.556Z,100774.00
2022-10-22T14:22:30.689Z,100778.16
2022-10-22T14:24:57.322Z,100766.53
2022-10-22T14:27:23.896Z,100777.13
2022-10-22T14:29:50.407Z,100769.03
2022-10-22T14:32:18.934Z,100757.59
2022-10-22T14:34:45.821Z,100753.66
2022-10-22T14:37:17.268Z,100777.41
2022-10-22T14:39:43.965Z,100769.84
2022-10-22T14:42:11.287Z,100776.38
2022-10-22T14:44:37.918Z,100777.75
2022-10-22T14:47:04.577Z,100740.16
2022-10-22T14:49:31.145Z,100782.13
2022-10-22T14:51:57.742Z,100767.41
2022-10-22T14:54:25.806Z,100782.66
2022-10-22T14:56:52.337Z,100757.34
2022-10-22T14:59:19.044Z,100777.19
2022-10-22T15:01:45.585Z,100750.91
2022-10-22T15:04:12.130Z,100774.16
2022-10-22T15:06:38.674Z,100753.72
2022-10-22T15:09:05.353Z,100782.69
2022-10-22T15:11:33.262Z,100776.75
2022-10-22T15:13:59.818Z,100783.72
2022-10-22T15:16:26.495Z,100765.28
2022-10-22T15:18:53.127Z,100789.59
2022-10-22T15:21:21.419Z,100787.34
2022-10-22T15:23:48.378Z,100684.38
2022-10-22T15:26:15.334Z,100777.66
2022-10-22T15:28:43.287Z,100784.41
2022-10-22T15:31:12.799Z,100783.56
2022-10-22T15:33:41.384Z,100789.00
2022-10-22T15:36:12.993Z,100792.63
2022-10-22T15:38:40.020Z,100777.78
2022-10-22T15:41:08.282Z,100782.81
2022-10-22T15:43:34.903Z,100803.41
2022-10-22T15:46:11.161Z,100795.63
2022-10-22T15:48:37.840Z,100805.06
2022-10-22T15:51:08.509Z,100806.56
2022-10-22T15:53:35.097Z,100806.75
2022-10-22T15:56:02.006Z,100783.47
2022-10-22T15:58:28.588Z,100797.13
2022-10-22T16:00:55.203Z,100801.53
2022-10-22T16:03:23.164Z,100799.88
2022-10-22T16:05:50.668Z,100808.25
2022-10-22T16:08:17.369Z,100810.13
2022-10-22T16:10:45.398Z,100795.66
2022-10-22T16:13:11.951Z,100804.69
2022-10-22T16:15:38.450Z,100816.34
2022-10-22T16:18:05.320Z,100792.91
2022-10-22T16:20:33.191Z,100811.38
2022-10-22T16:22:59.770Z,100814.22
2022-10-22T16:25:26.531Z,100813.22
2022-10-22T16:27:53.119Z,100811.88
2022-10-22T16:30:19.648Z,100815.38
2022-10-22T16:32:46.319Z,100794.38
2022-10-22T16:35:12.872Z,100790.06
2022-10-22T16:37:41.161Z,100815.38
2022-10-22T16:40:09.523Z,100807.03
2022-10-22T16:42:36.097Z,100807.06
2022-10-22T16:45:02.805Z,100791.69
2022-10-22T16:47:29.430Z,100793.84
2022-10-22T16:49:55.916Z,100826.13
2022-10-22T16:52:22.804Z,100789.13
2022-10-22T16:54:50.672Z,100827.59
2022-10-22T16:57:17.417Z,100814.06
2022-10-22T16:59:43.899Z,100833.53
2022-10-22T17:02:10.951Z,100822.31
2022-10-22T17:04:37.616Z,100836.13
2022-10-22T17:07:04.254Z,100832.56
2022-10-22T17:09:30.806Z,100824.69
2022-10-22T17:11:58.764Z,100839.03
2022-10-22T17:14:25.315Z,100852.97
2022-10-22T17:16:52.002Z,100852.59
2022-10-22T17:19:18.514Z,100851.56
2022-10-22T17:21:45.194Z,100853.50
2022-10-22T17:24:11.939Z,100858.09
2022-10-22T17:26:38.523Z,100855.91
2022-10-22T17:29:06.705Z,100815.34
2022-10-22T17:31:36.000Z,100858.66
2022-10-22T17:34:03.986Z,100852.75
2022-10-22T17:36:34.856Z,100855.44
2022-10-22T17:39:04.817Z,100853.31
2022-10-22T17:41:33.183Z,100865.91
2022-10-22T17:44:06.724Z,100864.41
2022-10-22T17:46:33.275Z,100860.41
2022-10-22T17:49:02.509Z,100869.22
2022-10-22T17:51:30.425Z,100835.59
2022-10-22T17:53:57.184Z,100869.59
2022-10-22T17:56:25.867Z,100856.94
2022-10-22T17:58:53.061Z,100870.50
2022-10-22T18:01:23.242Z,100867.78
2022-10-22T18:03:49.977Z,100863.06
2022-10-22T18:06:16.820Z,100861.44
2022-10-22T18:08:43.422Z,100860.53
2022-10-22T18:11:13.013Z,100866.66
2022-10-22T18:13:39.778Z,100864.63
2022-10-22T18:16:06.625Z,100870.19
2022-10-22T18:18:35.783Z,100864.50
2022-10-22T18:21:02.603Z,100873.19
2022-10-22T18:23:29.117Z,100872.94
2022-10-22T18:25:55.658Z,100875.91
2022-10-22T18:28:22.252Z,100850.16
2022-10-22T18:30:48.768Z,100870.94
2022-10-22T18:33:18.022Z,100863.44
2022-10-22T18:35:47.143Z,100880.50
2022-10-22T18:38:13.671Z,100878.50
2022-10-22T18:40:44.897Z,100879.50
2022-10-22T18:43:11.459Z,100865.72
2022-10-22T18:45:41.553Z,100880.59
2022-10-22T18:48:08.091Z,100876.88
2022-10-22T18:50:34.627Z,100854.56
2022-10-22T18:53:02.657Z,100872.28
2022-10-22T18:55:29.150Z,100870.78
2022-10-22T18:57:55.786Z,100877.75
2022-10-22T19:00:22.331Z,100840.81
2022-10-22T19:02:48.890Z,100876.91
2022-10-22T19:05:15.458Z,100871.34
2022-10-22T19:07:42.280Z,100866.59
2022-10-22T19:10:12.146Z,100868.28
2022-10-22T19:12:39.031Z,100862.72
2022-10-22T19:15:06.771Z,100858.66
2022-10-22T19:17:34.345Z,100831.63
2022-10-22T19:20:00.852Z,100859.38
2022-10-22T19:22:27.459Z,100859.78
2022-10-22T19:24:54.020Z,100855.59
2022-10-22T19:27:22.142Z,100863.25
2022-10-22T19:29:48.645Z,100863.13
2022-10-22T19:32:15.236Z,100861.75
2022-10-22T19:34:41.769Z,100858.94
2022-10-22T19:37:08.629Z,100869.66
2022-10-22T19:39:35.136Z,100866.34
2022-10-22T19:42:01.690Z,100867.44
2022-10-22T19:44:29.657Z,100872.84
2022-10-22T19:46:56.599Z,100866.31
2022-10-22T19:49:23.288Z,100871.88
2022-10-22T19:51:49.928Z,100870.34
2022-10-22T19:54:16.456Z,100857.22
2022-10-22T19:56:43.100Z,100839.34
2022-10-22T19:59:09.591Z,100813.41
2022-10-22T20:01:38.357Z,100862.34
2022-10-22T20:04:05.208Z,100864.81
2022-10-22T20:06:31.812Z,100851.81
2022-10-22T20:08:58.422Z,100874.69
2022-10-22T20:11:27.317Z,100876.50
2022-10-22T20:13:53.942Z,100890.81
2022-10-22T20:16:22.581Z,100889.31
2022-10-22T20:18:50.947Z,100883.16
2022-10-22T20:21:18.180Z,100887.03
2022-10-22T20:23:45.246Z,100889.84
2022-10-22T20:26:11.900Z,100889.13
2022-10-22T20:28:38.502Z,100832.91
2022-10-22T20:31:08.854Z,100867.47
2022-10-22T20:33:35.508Z,100892.31
2022-10-22T20:36:06.718Z,100894.38
2022-10-22T20:38:34.053Z,100868.94
2022-10-22T20:41:01.938Z,100875.78
2022-10-22T20:43:28.679Z,100874.25
2022-10-22T20:45:55.259Z,100881.81
2022-10-22T20:48:22.595Z,100882.06
2022-10-22T20:50:49.090Z,100879.56
2022-10-22T20:53:17.051Z,100858.50
2022-10-22T20:55:43.643Z,100876.41
2022-10-22T20:58:10.300Z,100790.91
2022-10-22T21:00:36.852Z,100854.19
2022-10-22T21:03:03.440Z,100875.09
2022-10-22T21:05:29.952Z,100878.75
2022-10-22T21:07:56.552Z,100852.38
2022-10-22T21:10:26.992Z,100871.47
2022-10-22T21:12:55.597Z,100883.88
2022-10-22T21:15:22.210Z,100880.38
2022-10-22T21:17:48.757Z,100877.91
2022-10-22T21:20:16.068Z,100886.53
2022-10-22T21:22:44.004Z,100886.41
2022-10-22T21:25:10.916Z,100885.00
2022-10-22T21:27:38.907Z,100882.88
2022-10-22T21:30:06.230Z,100882.88
2022-10-22T21:32:32.868Z,100893.69
2022-10-22T21:34:59.359Z,100891.19
2022-10-22T21:37:25.899Z,100885.44
2022-10-22T21:39:52.422Z,100889.22
2022-10-22T21:42:19.214Z,100888.38
2022-10-22T21:44:47.056Z,100880.34
2022-10-22T21:47:13.614Z,100883.16
2022-10-22T21:49:40.098Z,100861.00
2022-10-22T21:52:06.679Z,100884.56
2022-10-22T21:54:33.281Z,100889.25
2022-10-22T21:56:59.809Z,100888.56
2022-10-22T21:59:26.311Z,100877.94
2022-10-22T22:01:54.392Z,100888.81
2022-10-22T22:04:20.937Z,100892.31
2022-10-22T22:06:47.616Z,100888.97
2022-10-22T22:09:14.191Z,100883.22
2022-10-22T22:11:40.838Z,100865.75
2022-10-22T22:14:07.395Z,100864.69
2022-10-22T22:16:34.815Z,100843.88
2022-10-22T22:19:06.174Z,100863.13
2022-10-22T22:21:34.488Z,100867.00
2022-10-22T22:24:01.105Z,100865.44
2022-10-22T22:26:30.029Z,100861.66
2022-10-22T22:28:58.062Z,100872.91
2022-10-22T22:31:27.516Z,100867.91
2022-10-22T22:33:58.236Z,100855.06
2022-10-22T22:36:26.218Z,100854.16
2022-10-22T22:38:54.096Z,100860.75
2022-10-22T22:41:20.731Z,100861.84
2022-10-22T22:43:47.289Z,100855.84
2022-10-22T22:46:14.045Z,100866.53
2022-10-22T22:48:40.570Z,100869.16
2022-10-22T22:51:07.543Z,100857.31
2022-10-22T22:53:35.511Z,100818.78
2022-10-22T22:56:03.945Z,100848.00
2022-10-22T22:58:30.450Z,100850.97
2022-10-22T23:01:11.084Z,100859.16
2022-10-22T23:03:37.619Z,100849.84
2022-10-22T23:06:04.232Z,100854.50
2022-10-22T23:08:30.905Z,100852.00
2022-10-22T23:11:03.290Z,100853.06
2022-10-22T23:13:29.930Z,100832.72
2022-10-22T23:15:56.449Z,100749.13
2022-10-22T23:18:23.091Z,100816.47
2022-10-22T23:20:49.613Z,100818.25
2022-10-22T23:23:16.187Z,100826.19
2022-10-22T23:25:42.682Z,100831.44
2022-10-22T23:28:10.641Z,100847.22
2022-10-22T23:30:42.481Z,100843.06
2022-10-22T23:33:09.194Z,100833.00
2022-10-22T23:35:39.214Z,100841.03
2022-10-22T23:38:05.829Z,100829.78
2022-10-22T23:40:32.373Z,100827.16
2022-10-22T23:42:58.978Z,100826.81
2022-10-22T23:45:26.884Z,100806.50
2022-10-22T23:47:53.473Z,100794.16
2022-10-22T23:50:19.973Z,100836.31
2022-10-22T23:52:46.548Z,100827.78
2022-10-22T23:55:13.057Z,100829.72
2022-10-22T23:57:39.634Z,100836.78
